sensor_id;sensor_type;location;lat;lon;timestamp;P1;durP1;ratioP1;P2;durP2;ratioP2
68989;SDS011;56046;47.270;11.368;2022-11-20T00:01:34;8.03;;;4.03;;
68989;SDS011;56046;47.270;11.368;2022-11-20T00:04:00;7.03;;;3.80;;
68989;SDS011;56046;47.270;11.368;2022-11-20T00:06:26;8.45;;;3.85;;
68989;SDS011;56046;47.270;11.368;2022-11-20T00:08:53;7.03;;;3.40;;
68989;SDS011;56046;47.270;11.368;2022-11-20T00:11:20;6.97;;;3.47;;
68989;SDS011;56046;47.270;11.368;2022-11-20T00:13:46;9.13;;;4.10;;
68989;SDS011;56046;47.270;11.368;2022-11-20T00:16:12;7.63;;;3.70;;
68989;SDS011;56046;47.270;11.368;2022-11-20T00:18:37;8.25;;;3.80;;
68989;SDS011;56046;47.270;11.368;2022-11-20T00:21:07;5.88;;;2.97;;
68989;SDS011;56046;47.270;11.368;2022-11-20T00:23:32;7.55;;;3.85;;
68989;SDS011;56046;47.270;11.368;2022-11-20T00:26:02;8.73;;;4.50;;
68989;SDS011;56046;47.270;11.368;2022-11-20T00:28:28;8.57;;;4.43;;
68989;SDS011;56046;47.270;11.368;2022-11-20T00:30:59;11.73;;;5.17;;
68989;SDS011;56046;47.270;11.368;2022-11-20T00:33:24;9.65;;;4.45;;
68989;SDS011;56046;47.270;11.368;2022-11-20T00:35:50;8.77;;;4.23;;
68989;SDS011;56046;47.270;11.368;2022-11-20T00:38:15;9.90;;;4.73;;
68989;SDS011;56046;47.270;11.368;2022-11-20T00:40:40;9.53;;;4.60;;
68989;SDS011;56046;47.270;11.368;2022-11-20T00:43:05;8.47;;;4.40;;
68989;SDS011;56046;47.270;11.368;2022-11-20T00:45:31;8.83;;;3.90;;
68989;SDS011;56046;47.270;11.368;2022-11-20T00:47:56;9.00;;;4.13;;
68989;SDS011;56046;47.270;11.368;2022-11-20T00:50:21;9.10;;;4.10;;
68989;SDS011;56046;47.270;11.368;2022-11-20T00:52:47;8.30;;;4.00;;
68989;SDS011;56046;47.270;11.368;2022-11-20T00:55:12;9.25;;;3.75;;
68989;SDS011;56046;47.270;11.368;2022-11-20T00:57:37;8.63;;;4.10;;
68989;SDS011;56046;47.270;11.368;2022-11-20T01:00:03;8.73;;;4.07;;
68989;SDS011;56046;47.270;11.368;2022-11-20T01:02:28;8.97;;;4.23;;
68989;SDS011;56046;47.270;11.368;2022-11-20T01:04:54;9.47;;;4.10;;
68989;SDS011;56046;47.270;11.368;2022-11-20T01:07:19;7.73;;;3.97;;
68989;SDS011;56046;47.270;11.368;2022-11-20T01:09:44;9.03;;;3.50;;
68989;SDS011;56046;47.270;11.368;2022-11-20T01:12:09;7.07;;;3.50;;
68989;SDS011;56046;47.270;11.368;2022-11-20T01:14:35;7.23;;;3.23;;
68989;SDS011;56046;47.270;11.368;2022-11-20T01:17:00;8.17;;;3.43;;
68989;SDS011;56046;47.270;11.368;2022-11-20T01:19:25;6.83;;;3.20;;
68989;SDS011;56046;47.270;11.368;2022-11-20T01:21:51;8.33;;;3.33;;
68989;SDS011;56046;47.270;11.368;2022-11-20T01:24:18;8.57;;;3.60;;
68989;SDS011;56046;47.270;11.368;2022-11-20T01:26:44;7.90;;;4.20;;
68989;SDS011;56046;47.270;11.368;2022-11-20T01:29:12;8.13;;;3.90;;
68989;SDS011;56046;47.270;11.368;2022-11-20T01:31:38;8.05;;;3.67;;
68989;SDS011;56046;47.270;11.368;2022-11-20T01:34:04;8.43;;;3.97;;
68989;SDS011;56046;47.270;11.368;2022-11-20T01:36:30;8.55;;;3.58;;
68989;SDS011;56046;47.270;11.368;2022-11-20T01:38:57;8.65;;;3.80;;
68989;SDS011;56046;47.270;11.368;2022-11-20T01:41:22;9.07;;;3.67;;
68989;SDS011;56046;47.270;11.368;2022-11-20T01:44:09;7.00;;;3.92;;
68989;SDS011;56046;47.270;11.368;2022-11-20T01:46:35;8.23;;;3.78;;
68989;SDS011;56046;47.270;11.368;2022-11-20T01:53:55;9.33;;;4.43;;
68989;SDS011;56046;47.270;11.368;2022-11-20T01:56:23;7.63;;;4.13;;
68989;SDS011;56046;47.270;11.368;2022-11-20T01:58:50;9.20;;;4.10;;
68989;SDS011;56046;47.270;11.368;2022-11-20T02:01:17;8.20;;;4.03;;
68989;SDS011;56046;47.270;11.368;2022-11-20T02:03:42;8.40;;;4.43;;
68989;SDS011;56046;47.270;11.368;2022-11-20T02:09:05;8.88;;;4.75;;
68989;SDS011;56046;47.270;11.368;2022-11-20T02:11:31;9.80;;;4.60;;
68989;SDS011;56046;47.270;11.368;2022-11-20T02:13:56;9.90;;;4.53;;
68989;SDS011;56046;47.270;11.368;2022-11-20T02:16:23;9.80;;;4.47;;
68989;SDS011;56046;47.270;11.368;2022-11-20T02:18:49;8.18;;;4.13;;
68989;SDS011;56046;47.270;11.368;2022-11-20T02:21:17;9.67;;;4.63;;
68989;SDS011;56046;47.270;11.368;2022-11-20T02:26:20;9.73;;;4.10;;
68989;SDS011;56046;47.270;11.368;2022-11-20T02:28:47;9.88;;;4.82;;
68989;SDS011;56046;47.270;11.368;2022-11-20T02:31:12;10.13;;;4.53;;
68989;SDS011;56046;47.270;11.368;2022-11-20T02:33:37;10.23;;;4.47;;
68989;SDS011;56046;47.270;11.368;2022-11-20T02:36:03;8.80;;;4.57;;
68989;SDS011;56046;47.270;11.368;2022-11-20T02:38:28;8.43;;;4.37;;
68989;SDS011;56046;47.270;11.368;2022-11-20T02:40:53;9.17;;;3.73;;
68989;SDS011;56046;47.270;11.368;2022-11-20T02:43:19;11.07;;;4.50;;
68989;SDS011;56046;47.270;11.368;2022-11-20T02:45:44;10.70;;;4.23;;
68989;SDS011;56046;47.270;11.368;2022-11-20T02:48:09;8.47;;;3.30;;
68989;SDS011;56046;47.270;11.368;2022-11-20T02:50:38;8.47;;;4.03;;
68989;SDS011;56046;47.270;11.368;2022-11-20T02:53:04;9.90;;;3.88;;
68989;SDS011;56046;47.270;11.368;2022-11-20T02:55:29;10.57;;;4.40;;
68989;SDS011;56046;47.270;11.368;2022-11-20T02:57:54;10.27;;;4.17;;
68989;SDS011;56046;47.270;11.368;2022-11-20T03:00:19;10.20;;;4.87;;
68989;SDS011;56046;47.270;11.368;2022-11-20T03:02:45;9.00;;;4.13;;
68989;SDS011;56046;47.270;11.368;2022-11-20T03:05:10;8.10;;;3.93;;
68989;SDS011;56046;47.270;11.368;2022-11-20T03:07:35;8.17;;;4.50;;
68989;SDS011;56046;47.270;11.368;2022-11-20T03:10:01;9.17;;;4.07;;
68989;SDS011;56046;47.270;11.368;2022-11-20T03:12:26;6.65;;;3.70;;
68989;SDS011;56046;47.270;11.368;2022-11-20T03:14:51;9.10;;;4.10;;
68989;SDS011;56046;47.270;11.368;2022-11-20T03:17:17;8.30;;;4.00;;
68989;SDS011;56046;47.270;11.368;2022-11-20T03:19:42;9.97;;;4.00;;
68989;SDS011;56046;47.270;11.368;2022-11-20T03:22:07;8.10;;;3.90;;
68989;SDS011;56046;47.270;11.368;2022-11-20T03:24:32;7.47;;;3.70;;
68989;SDS011;56046;47.270;11.368;2022-11-20T03:26:58;7.80;;;3.50;;
68989;SDS011;56046;47.270;11.368;2022-11-20T03:29:23;7.50;;;4.03;;
68989;SDS011;56046;47.270;11.368;2022-11-20T03:31:48;9.53;;;4.13;;
68989;SDS011;56046;47.270;11.368;2022-11-20T03:34:14;9.00;;;3.63;;
68989;SDS011;56046;47.270;11.368;2022-11-20T03:36:39;7.80;;;3.53;;
68989;SDS011;56046;47.270;11.368;2022-11-20T03:39:05;7.97;;;4.00;;
68989;SDS011;56046;47.270;11.368;2022-11-20T03:41:31;7.93;;;3.75;;
68989;SDS011;56046;47.270;11.368;2022-11-20T03:44:01;10.13;;;4.05;;
68989;SDS011;56046;47.270;11.368;2022-11-20T03:46:27;7.38;;;3.67;;
68989;SDS011;56046;47.270;11.368;2022-11-20T03:48:53;7.38;;;3.75;;
68989;SDS011;56046;47.270;11.368;2022-11-20T03:51:20;8.37;;;4.43;;
68989;SDS011;56046;47.270;11.368;2022-11-20T03:53:46;7.60;;;3.92;;
68989;SDS011;56046;47.270;11.368;2022-11-20T03:56:13;9.30;;;4.50;;
68989;SDS011;56046;47.270;11.368;2022-11-20T03:58:39;7.78;;;4.03;;
68989;SDS011;56046;47.270;11.368;2022-11-20T04:03:39;8.70;;;4.25;;
68989;SDS011;56046;47.270;11.368;2022-11-20T04:06:09;8.25;;;3.67;;
68989;SDS011;56046;47.270;11.368;2022-11-20T04:08:34;8.35;;;3.90;;
68989;SDS011;56046;47.270;11.368;2022-11-20T04:11:13;9.07;;;4.20;;
68989;SDS011;56046;47.270;11.368;2022-11-20T04:13:38;7.72;;;3.80;;
68989;SDS011;56046;47.270;11.368;2022-11-20T04:16:05;7.93;;;4.00;;
68989;SDS011;56046;47.270;11.368;2022-11-20T04:18:30;10.15;;;4.70;;
68989;SDS011;56046;47.270;11.368;2022-11-20T04:20:58;10.60;;;3.93;;
68989;SDS011;56046;47.270;11.368;2022-11-20T04:23:24;8.32;;;3.65;;
68989;SDS011;56046;47.270;11.368;2022-11-20T04:25:49;8.00;;;4.37;;
68989;SDS011;56046;47.270;11.368;2022-11-20T04:28:15;9.50;;;4.20;;
68989;SDS011;56046;47.270;11.368;2022-11-20T04:30:40;7.13;;;3.90;;
68989;SDS011;56046;47.270;11.368;2022-11-20T04:33:05;6.87;;;3.90;;
68989;SDS011;56046;47.270;11.368;2022-11-20T04:35:33;11.80;;;3.97;;
68989;SDS011;56046;47.270;11.368;2022-11-20T04:37:58;8.40;;;4.40;;
68989;SDS011;56046;47.270;11.368;2022-11-20T04:40:24;9.43;;;4.60;;
68989;SDS011;56046;47.270;11.368;2022-11-20T04:42:49;9.10;;;4.00;;
68989;SDS011;56046;47.270;11.368;2022-11-20T04:45:14;9.07;;;4.90;;
68989;SDS011;56046;47.270;11.368;2022-11-20T04:47:39;7.97;;;4.40;;
68989;SDS011;56046;47.270;11.368;2022-11-20T04:50:05;8.93;;;4.47;;
68989;SDS011;56046;47.270;11.368;2022-11-20T04:52:30;9.90;;;4.73;;
68989;SDS011;56046;47.270;11.368;2022-11-20T04:54:55;10.23;;;4.60;;
68989;SDS011;56046;47.270;11.368;2022-11-20T04:57:21;9.33;;;4.27;;
68989;SDS011;56046;47.270;11.368;2022-11-20T04:59:46;8.38;;;4.22;;
68989;SDS011;56046;47.270;11.368;2022-11-20T05:02:12;8.82;;;4.15;;
68989;SDS011;56046;47.270;11.368;2022-11-20T05:04:37;10.23;;;4.27;;
68989;SDS011;56046;47.270;11.368;2022-11-20T05:07:02;7.77;;;4.07;;
68989;SDS011;56046;47.270;11.368;2022-11-20T05:09:27;8.63;;;4.30;;
68989;SDS011;56046;47.270;11.368;2022-11-20T05:11:53;9.07;;;4.17;;
68989;SDS011;56046;47.270;11.368;2022-11-20T05:14:18;8.30;;;4.10;;
68989;SDS011;56046;47.270;11.368;2022-11-20T05:16:43;8.70;;;4.00;;
68989;SDS011;56046;47.270;11.368;2022-11-20T05:19:09;8.17;;;4.03;;
68989;SDS011;56046;47.270;11.368;2022-11-20T05:21:34;7.70;;;3.97;;
68989;SDS011;56046;47.270;11.368;2022-11-20T05:23:59;8.23;;;3.90;;
68989;SDS011;56046;47.270;11.368;2022-11-20T05:26:24;17.42;;;7.93;;
68989;SDS011;56046;47.270;11.368;2022-11-20T05:28:50;15.73;;;6.47;;
68989;SDS011;56046;47.270;11.368;2022-11-20T05:31:17;20.27;;;8.65;;
68989;SDS011;56046;47.270;11.368;2022-11-20T05:33:43;16.17;;;8.30;;
68989;SDS011;56046;47.270;11.368;2022-11-20T05:36:09;14.73;;;7.15;;
68989;SDS011;56046;47.270;11.368;2022-11-20T05:38:35;12.85;;;6.40;;
68989;SDS011;56046;47.270;11.368;2022-11-20T05:41:10;13.93;;;7.17;;
68989;SDS011;56046;47.270;11.368;2022-11-20T05:43:36;14.35;;;6.20;;
68989;SDS011;56046;47.270;11.368;2022-11-20T05:46:02;12.40;;;5.57;;
68989;SDS011;56046;47.270;11.368;2022-11-20T05:48:28;11.73;;;5.60;;
68989;SDS011;56046;47.270;11.368;2022-11-20T05:50:53;10.40;;;4.37;;
68989;SDS011;56046;47.270;11.368;2022-11-20T05:53:18;13.23;;;6.32;;
68989;SDS011;56046;47.270;11.368;2022-11-20T05:55:44;30.48;;;16.13;;
68989;SDS011;56046;47.270;11.368;2022-11-20T05:58:09;26.47;;;13.83;;
68989;SDS011;56046;47.270;11.368;2022-11-20T06:00:34;18.60;;;10.50;;
68989;SDS011;56046;47.270;11.368;2022-11-20T06:03:00;16.20;;;8.93;;
68989;SDS011;56046;47.270;11.368;2022-11-20T06:05:25;15.27;;;8.93;;
68989;SDS011;56046;47.270;11.368;2022-11-20T06:07:51;15.13;;;8.00;;
68989;SDS011;56046;47.270;11.368;2022-11-20T06:10:16;14.00;;;7.37;;
68989;SDS011;56046;47.270;11.368;2022-11-20T06:12:41;13.53;;;7.13;;
68989;SDS011;56046;47.270;11.368;2022-11-20T06:15:06;12.00;;;6.60;;
68989;SDS011;56046;47.270;11.368;2022-11-20T06:17:32;11.83;;;6.27;;
68989;SDS011;56046;47.270;11.368;2022-11-20T06:19:57;10.60;;;4.47;;
68989;SDS011;56046;47.270;11.368;2022-11-20T06:22:22;8.43;;;3.77;;
68989;SDS011;56046;47.270;11.368;2022-11-20T06:24:48;8.60;;;3.93;;
68989;SDS011;56046;47.270;11.368;2022-11-20T06:27:13;9.60;;;4.60;;
68989;SDS011;56046;47.270;11.368;2022-11-20T06:29:38;7.83;;;3.70;;
68989;SDS011;56046;47.270;11.368;2022-11-20T06:32:04;9.03;;;4.40;;
68989;SDS011;56046;47.270;11.368;2022-11-20T06:34:29;9.60;;;4.47;;
68989;SDS011;56046;47.270;11.368;2022-11-20T06:36:54;8.10;;;4.13;;
68989;SDS011;56046;47.270;11.368;2022-11-20T06:39:19;8.57;;;4.23;;
68989;SDS011;56046;47.270;11.368;2022-11-20T06:41:45;10.70;;;5.90;;
68989;SDS011;56046;47.270;11.368;2022-11-20T06:44:10;9.77;;;5.60;;
68989;SDS011;56046;47.270;11.368;2022-11-20T06:46:36;10.10;;;4.85;;
68989;SDS011;56046;47.270;11.368;2022-11-20T06:49:01;8.23;;;4.50;;
68989;SDS011;56046;47.270;11.368;2022-11-20T06:51:26;9.53;;;4.80;;
68989;SDS011;56046;47.270;11.368;2022-11-20T06:53:52;10.63;;;5.33;;
68989;SDS011;56046;47.270;11.368;2022-11-20T06:56:17;11.35;;;5.38;;
68989;SDS011;56046;47.270;11.368;2022-11-20T06:58:43;11.93;;;5.63;;
68989;SDS011;56046;47.270;11.368;2022-11-20T07:01:09;10.13;;;5.20;;
68989;SDS011;56046;47.270;11.368;2022-11-20T07:03:35;9.15;;;5.65;;
68989;SDS011;56046;47.270;11.368;2022-11-20T07:06:00;10.00;;;4.90;;
68989;SDS011;56046;47.270;11.368;2022-11-20T07:08:26;9.10;;;5.73;;
68989;SDS011;56046;47.270;11.368;2022-11-20T07:10:51;10.13;;;6.07;;
68989;SDS011;56046;47.270;11.368;2022-11-20T07:13:16;14.13;;;7.40;;
68989;SDS011;56046;47.270;11.368;2022-11-20T07:15:42;15.33;;;7.50;;
68989;SDS011;56046;47.270;11.368;2022-11-20T07:18:07;10.80;;;5.90;;
68989;SDS011;56046;47.270;11.368;2022-11-20T07:20:32;12.97;;;5.20;;
68989;SDS011;56046;47.270;11.368;2022-11-20T07:22:58;10.70;;;5.47;;
68989;SDS011;56046;47.270;11.368;2022-11-20T07:25:23;8.77;;;4.70;;
68989;SDS011;56046;47.270;11.368;2022-11-20T07:27:49;8.53;;;4.50;;
68989;SDS011;56046;47.270;11.368;2022-11-20T07:30:15;7.90;;;4.50;;
68989;SDS011;56046;47.270;11.368;2022-11-20T07:32:40;9.52;;;4.82;;
68989;SDS011;56046;47.270;11.368;2022-11-20T07:35:05;13.33;;;5.93;;
68989;SDS011;56046;47.270;11.368;2022-11-20T07:37:33;9.63;;;5.78;;
68989;SDS011;56046;47.270;11.368;2022-11-20T07:39:58;11.13;;;4.60;;
68989;SDS011;56046;47.270;11.368;2022-11-20T07:42:24;11.93;;;5.67;;
68989;SDS011;56046;47.270;11.368;2022-11-20T07:44:49;9.80;;;5.22;;
68989;SDS011;56046;47.270;11.368;2022-11-20T07:47:14;8.10;;;4.50;;
68989;SDS011;56046;47.270;11.368;2022-11-20T07:49:40;8.23;;;4.33;;
68989;SDS011;56046;47.270;11.368;2022-11-20T07:52:05;7.60;;;4.23;;
68989;SDS011;56046;47.270;11.368;2022-11-20T07:54:30;7.37;;;3.73;;
68989;SDS011;56046;47.270;11.368;2022-11-20T07:56:55;9.20;;;4.40;;
68989;SDS011;56046;47.270;11.368;2022-11-20T07:59:21;10.37;;;5.13;;
68989;SDS011;56046;47.270;11.368;2022-11-20T08:01:46;9.13;;;5.20;;
68989;SDS011;56046;47.270;11.368;2022-11-20T08:04:11;9.10;;;5.50;;
68989;SDS011;56046;47.270;11.368;2022-11-20T08:06:37;10.10;;;5.13;;
68989;SDS011;56046;47.270;11.368;2022-11-20T08:09:02;14.05;;;5.78;;
68989;SDS011;56046;47.270;11.368;2022-11-20T08:11:27;12.63;;;4.90;;
68989;SDS011;56046;47.270;11.368;2022-11-20T08:14:11;10.23;;;5.43;;
68989;SDS011;56046;47.270;11.368;2022-11-20T08:16:36;11.03;;;5.60;;
68989;SDS011;56046;47.270;11.368;2022-11-20T08:19:02;13.37;;;7.33;;
68989;SDS011;56046;47.270;11.368;2022-11-20T08:21:27;13.03;;;6.63;;
68989;SDS011;56046;47.270;11.368;2022-11-20T08:23:52;11.20;;;5.27;;
68989;SDS011;56046;47.270;11.368;2022-11-20T08:26:18;10.93;;;5.37;;
68989;SDS011;56046;47.270;11.368;2022-11-20T08:28:43;8.05;;;4.60;;
68989;SDS011;56046;47.270;11.368;2022-11-20T08:31:09;9.40;;;5.17;;
68989;SDS011;56046;47.270;11.368;2022-11-20T08:33:34;7.80;;;4.73;;
68989;SDS011;56046;47.270;11.368;2022-11-20T08:36:00;11.77;;;6.60;;
68989;SDS011;56046;47.270;11.368;2022-11-20T08:38:25;8.37;;;4.07;;
68989;SDS011;56046;47.270;11.368;2022-11-20T08:40:51;8.03;;;4.60;;
68989;SDS011;56046;47.270;11.368;2022-11-20T08:43:35;10.05;;;3.90;;
68989;SDS011;56046;47.270;11.368;2022-11-20T08:46:00;10.93;;;5.10;;
68989;SDS011;56046;47.270;11.368;2022-11-20T08:48:25;11.43;;;5.37;;
68989;SDS011;56046;47.270;11.368;2022-11-20T08:50:50;9.00;;;5.20;;
68989;SDS011;56046;47.270;11.368;2022-11-20T08:53:16;10.23;;;5.60;;
68989;SDS011;56046;47.270;11.368;2022-11-20T08:55:41;10.20;;;5.07;;
68989;SDS011;56046;47.270;11.368;2022-11-20T08:58:06;13.27;;;7.70;;
68989;SDS011;56046;47.270;11.368;2022-11-20T09:00:32;9.97;;;6.60;;
68989;SDS011;56046;47.270;11.368;2022-11-20T09:02:57;10.43;;;6.17;;
68989;SDS011;56046;47.270;11.368;2022-11-20T09:05:23;10.40;;;6.13;;
68989;SDS011;56046;47.270;11.368;2022-11-20T09:07:49;9.93;;;5.80;;
68989;SDS011;56046;47.270;11.368;2022-11-20T09:10:14;11.10;;;6.00;;
68989;SDS011;56046;47.270;11.368;2022-11-20T09:12:39;9.93;;;6.07;;
68989;SDS011;56046;47.270;11.368;2022-11-20T09:15:05;11.53;;;6.37;;
68989;SDS011;56046;47.270;11.368;2022-11-20T09:17:30;14.03;;;6.10;;
68989;SDS011;56046;47.270;11.368;2022-11-20T09:19:55;12.53;;;6.00;;
68989;SDS011;56046;47.270;11.368;2022-11-20T09:22:21;11.00;;;5.87;;
68989;SDS011;56046;47.270;11.368;2022-11-20T09:24:46;8.53;;;4.80;;
68989;SDS011;56046;47.270;11.368;2022-11-20T09:27:11;9.40;;;4.73;;
68989;SDS011;56046;47.270;11.368;2022-11-20T09:29:36;9.70;;;4.77;;
68989;SDS011;56046;47.270;11.368;2022-11-20T09:32:02;8.60;;;4.40;;
68989;SDS011;56046;47.270;11.368;2022-11-20T09:34:27;11.40;;;5.50;;
68989;SDS011;56046;47.270;11.368;2022-11-20T09:36:52;10.50;;;5.43;;
68989;SDS011;56046;47.270;11.368;2022-11-20T09:39:18;10.40;;;5.70;;
68989;SDS011;56046;47.270;11.368;2022-11-20T09:52:17;9.47;;;4.50;;
68989;SDS011;56046;47.270;11.368;2022-11-20T09:54:43;8.18;;;4.50;;
68989;SDS011;56046;47.270;11.368;2022-11-20T09:57:13;7.90;;;5.03;;
68989;SDS011;56046;47.270;11.368;2022-11-20T09:59:40;7.35;;;4.03;;
68989;SDS011;56046;47.270;11.368;2022-11-20T10:04:45;7.90;;;4.60;;
68989;SDS011;56046;47.270;11.368;2022-11-20T10:07:58;8.82;;;5.22;;
68989;SDS011;56046;47.270;11.368;2022-11-20T10:10:01;9.60;;;5.40;;
68989;SDS011;56046;47.270;11.368;2022-11-20T10:14:58;9.07;;;4.85;;
68989;SDS011;56046;47.270;11.368;2022-11-20T10:27:52;9.15;;;5.00;;
68989;SDS011;56046;47.270;11.368;2022-11-20T10:30:21;7.22;;;4.25;;
68989;SDS011;56046;47.270;11.368;2022-11-20T10:32:54;7.43;;;4.60;;
68989;SDS011;56046;47.270;11.368;2022-11-20T10:35:24;9.87;;;4.67;;
68989;SDS011;56046;47.270;11.368;2022-11-20T10:38:00;8.35;;;4.93;;
68989;SDS011;56046;47.270;11.368;2022-11-20T10:40:38;8.70;;;5.28;;
68989;SDS011;56046;47.270;11.368;2022-11-20T10:43:46;7.72;;;4.57;;
68989;SDS011;56046;47.270;11.368;2022-11-20T11:01:14;5.80;;;3.60;;
68989;SDS011;56046;47.270;11.368;2022-11-20T11:03:40;5.40;;;2.90;;
68989;SDS011;56046;47.270;11.368;2022-11-20T11:06:08;5.68;;;3.40;;
68989;SDS011;56046;47.270;11.368;2022-11-20T11:08:37;6.30;;;3.20;;
68989;SDS011;56046;47.270;11.368;2022-11-20T11:11:09;5.47;;;3.08;;
68989;SDS011;56046;47.270;11.368;2022-11-20T11:13:40;4.33;;;2.43;;
68989;SDS011;56046;47.270;11.368;2022-11-20T11:16:05;6.03;;;2.70;;
68989;SDS011;56046;47.270;11.368;2022-11-20T11:18:31;5.03;;;2.77;;
68989;SDS011;56046;47.270;11.368;2022-11-20T11:20:59;5.83;;;3.17;;
68989;SDS011;56046;47.270;11.368;2022-11-20T11:23:31;6.97;;;3.25;;
68989;SDS011;56046;47.270;11.368;2022-11-20T11:25:58;4.70;;;2.85;;
68989;SDS011;56046;47.270;11.368;2022-11-20T11:28:24;5.43;;;3.00;;
68989;SDS011;56046;47.270;11.368;2022-11-20T11:30:51;5.38;;;3.00;;
68989;SDS011;56046;47.270;11.368;2022-11-20T11:33:23;6.53;;;2.77;;
68989;SDS011;56046;47.270;11.368;2022-11-20T11:35:50;5.40;;;3.30;;
68989;SDS011;56046;47.270;11.368;2022-11-20T11:38:39;6.05;;;3.25;;
68989;SDS011;56046;47.270;11.368;2022-11-20T11:41:06;5.60;;;2.85;;
68989;SDS011;56046;47.270;11.368;2022-11-20T11:43:33;6.20;;;2.77;;
68989;SDS011;56046;47.270;11.368;2022-11-20T11:48:58;6.25;;;2.60;;
68989;SDS011;56046;47.270;11.368;2022-11-20T11:51:28;5.30;;;2.53;;
68989;SDS011;56046;47.270;11.368;2022-11-20T11:53:56;4.97;;;2.38;;
68989;SDS011;56046;47.270;11.368;2022-11-20T11:56:23;3.57;;;2.00;;
68989;SDS011;56046;47.270;11.368;2022-11-20T11:58:51;3.90;;;2.10;;
68989;SDS011;56046;47.270;11.368;2022-11-20T12:03:50;4.30;;;1.63;;
68989;SDS011;56046;47.270;11.368;2022-11-20T12:06:17;4.80;;;2.20;;
68989;SDS011;56046;47.270;11.368;2022-11-20T12:08:53;5.20;;;2.70;;
68989;SDS011;56046;47.270;11.368;2022-11-20T12:16:34;3.13;;;1.50;;
68989;SDS011;56046;47.270;11.368;2022-11-20T12:19:00;3.63;;;1.75;;
68989;SDS011;56046;47.270;11.368;2022-11-20T12:21:38;2.63;;;1.40;;
68989;SDS011;56046;47.270;11.368;2022-11-20T12:24:25;3.70;;;1.70;;
68989;SDS011;56046;47.270;11.368;2022-11-20T12:39:46;3.97;;;1.73;;
68989;SDS011;56046;47.270;11.368;2022-11-20T12:42:16;3.65;;;2.08;;
68989;SDS011;56046;47.270;11.368;2022-11-20T12:52:46;3.78;;;1.90;;
68989;SDS011;56046;47.270;11.368;2022-11-20T12:57:44;4.55;;;2.47;;
68989;SDS011;56046;47.270;11.368;2022-11-20T13:00:18;4.93;;;2.65;;
68989;SDS011;56046;47.270;11.368;2022-11-20T13:07:47;4.25;;;2.20;;
68989;SDS011;56046;47.270;11.368;2022-11-20T13:10:26;3.93;;;2.20;;
68989;SDS011;56046;47.270;11.368;2022-11-20T13:12:58;4.53;;;2.00;;
68989;SDS011;56046;47.270;11.368;2022-11-20T13:17:54;3.60;;;2.17;;
68989;SDS011;56046;47.270;11.368;2022-11-20T13:20:21;6.15;;;2.00;;
68989;SDS011;56046;47.270;11.368;2022-11-20T13:25:28;3.28;;;1.88;;
68989;SDS011;56046;47.270;11.368;2022-11-20T13:27:55;3.87;;;1.77;;
68989;SDS011;56046;47.270;11.368;2022-11-20T13:30:21;2.33;;;1.50;;
68989;SDS011;56046;47.270;11.368;2022-11-20T13:32:51;2.42;;;1.33;;
68989;SDS011;56046;47.270;11.368;2022-11-20T13:35:28;2.33;;;1.20;;
68989;SDS011;56046;47.270;11.368;2022-11-20T13:38:01;2.13;;;1.20;;
68989;SDS011;56046;47.270;11.368;2022-11-20T13:40:27;5.17;;;1.60;;
68989;SDS011;56046;47.270;11.368;2022-11-20T13:43:00;3.47;;;1.40;;
68989;SDS011;56046;47.270;11.368;2022-11-20T13:45:27;2.85;;;1.65;;
68989;SDS011;56046;47.270;11.368;2022-11-20T13:47:53;3.22;;;1.15;;
68989;SDS011;56046;47.270;11.368;2022-11-20T13:50:19;3.10;;;1.20;;
68989;SDS011;56046;47.270;11.368;2022-11-20T14:00:50;2.65;;;1.42;;
68989;SDS011;56046;47.270;11.368;2022-11-20T14:03:22;2.90;;;1.30;;
68989;SDS011;56046;47.270;11.368;2022-11-20T14:05:59;2.10;;;1.10;;
68989;SDS011;56046;47.270;11.368;2022-11-20T14:08:31;2.83;;;1.17;;
68989;SDS011;56046;47.270;11.368;2022-11-20T14:11:15;2.65;;;1.17;;
68989;SDS011;56046;47.270;11.368;2022-11-20T14:13:54;3.88;;;1.35;;
68989;SDS011;56046;47.270;11.368;2022-11-20T14:16:21;2.45;;;0.90;;
68989;SDS011;56046;47.270;11.368;2022-11-20T14:18:47;2.08;;;1.20;;
68989;SDS011;56046;47.270;11.368;2022-11-20T14:21:21;2.90;;;1.10;;
68989;SDS011;56046;47.270;11.368;2022-11-20T14:23:46;2.55;;;1.20;;
68989;SDS011;56046;47.270;11.368;2022-11-20T14:26:13;3.00;;;1.33;;
68989;SDS011;56046;47.270;11.368;2022-11-20T14:28:39;1.88;;;1.23;;
68989;SDS011;56046;47.270;11.368;2022-11-20T14:31:08;2.58;;;1.10;;
68989;SDS011;56046;47.270;11.368;2022-11-20T14:33:42;1.73;;;0.90;;
68989;SDS011;56046;47.270;11.368;2022-11-20T14:36:15;2.28;;;1.10;;
68989;SDS011;56046;47.270;11.368;2022-11-20T14:38:42;2.47;;;1.02;;
68989;SDS011;56046;47.270;11.368;2022-11-20T14:41:08;1.30;;;0.70;;
68989;SDS011;56046;47.270;11.368;2022-11-20T14:43:34;2.72;;;1.20;;
68989;SDS011;56046;47.270;11.368;2022-11-20T14:46:03;4.05;;;1.10;;
68989;SDS011;56046;47.270;11.368;2022-11-20T14:48:39;1.90;;;1.08;;
68989;SDS011;56046;47.270;11.368;2022-11-20T14:51:08;2.47;;;1.07;;
68989;SDS011;56046;47.270;11.368;2022-11-20T14:53:34;2.70;;;1.20;;
68989;SDS011;56046;47.270;11.368;2022-11-20T14:56:00;2.67;;;0.90;;
68989;SDS011;56046;47.270;11.368;2022-11-20T14:58:28;2.58;;;1.08;;
68989;SDS011;56046;47.270;11.368;2022-11-20T15:00:55;2.72;;;1.20;;
68989;SDS011;56046;47.270;11.368;2022-11-20T15:03:22;2.70;;;1.17;;
68989;SDS011;56046;47.270;11.368;2022-11-20T15:05:48;2.23;;;0.93;;
68989;SDS011;56046;47.270;11.368;2022-11-20T15:08:14;1.83;;;0.90;;
68989;SDS011;56046;47.270;11.368;2022-11-20T15:10:48;2.65;;;0.90;;
68989;SDS011;56046;47.270;11.368;2022-11-20T15:15:55;2.80;;;0.83;;
68989;SDS011;56046;47.270;11.368;2022-11-20T15:18:22;1.83;;;0.82;;
68989;SDS011;56046;47.270;11.368;2022-11-20T15:20:48;2.25;;;0.85;;
68989;SDS011;56046;47.270;11.368;2022-11-20T15:23:16;2.90;;;0.80;;
68989;SDS011;56046;47.270;11.368;2022-11-20T15:25:43;1.88;;;1.00;;
68989;SDS011;56046;47.270;11.368;2022-11-20T15:28:13;1.85;;;0.85;;
68989;SDS011;56046;47.270;11.368;2022-11-20T15:30:41;1.98;;;0.90;;
68989;SDS011;56046;47.270;11.368;2022-11-20T15:33:08;2.80;;;1.20;;
68989;SDS011;56046;47.270;11.368;2022-11-20T15:35:33;3.17;;;1.20;;
68989;SDS011;56046;47.270;11.368;2022-11-20T15:37:59;2.47;;;0.90;;
68989;SDS011;56046;47.270;11.368;2022-11-20T15:40:24;2.30;;;1.17;;
68989;SDS011;56046;47.270;11.368;2022-11-20T15:42:50;2.30;;;1.00;;
68989;SDS011;56046;47.270;11.368;2022-11-20T15:45:28;2.45;;;1.08;;
68989;SDS011;56046;47.270;11.368;2022-11-20T15:47:55;2.33;;;1.02;;
68989;SDS011;56046;47.270;11.368;2022-11-20T15:50:21;3.90;;;1.17;;
68989;SDS011;56046;47.270;11.368;2022-11-20T15:52:47;3.72;;;1.17;;
68989;SDS011;56046;47.270;11.368;2022-11-20T15:55:12;3.03;;;0.80;;
68989;SDS011;56046;47.270;11.368;2022-11-20T15:57:38;2.17;;;1.00;;
68989;SDS011;56046;47.270;11.368;2022-11-20T16:00:03;2.50;;;1.10;;
68989;SDS011;56046;47.270;11.368;2022-11-20T16:02:29;2.70;;;1.03;;
68989;SDS011;56046;47.270;11.368;2022-11-20T16:04:55;2.00;;;0.88;;
68989;SDS011;56046;47.270;11.368;2022-11-20T16:07:21;3.90;;;1.52;;
68989;SDS011;56046;47.270;11.368;2022-11-20T16:09:47;2.77;;;0.90;;
68989;SDS011;56046;47.270;11.368;2022-11-20T16:12:13;2.97;;;1.20;;
68989;SDS011;56046;47.270;11.368;2022-11-20T16:15:01;2.97;;;1.40;;
68989;SDS011;56046;47.270;11.368;2022-11-20T16:17:44;3.80;;;1.02;;
68989;SDS011;56046;47.270;11.368;2022-11-20T16:20:11;4.70;;;1.23;;